ARG1525 SABE-SACO
Flight info
| Callsign | ARG1525 |
|---|---|
| Flight time | N/A |
| Altitude | 32000 |
| Route | ATOVO4B ATOVO UW5 ASISA ASISA1Q |
| Aircraft | B38M/M-SDE1FGHILORVWXY/HB1 |
Departure
| Time | N/A |
|---|---|
| Airport | Aeroparque Jorge Newbery (SABE) |
Arrival
| Time | 2026-05-03 21:20 |
|---|---|
| Airport | Ingeniero Aeronáutico Ambrosio L.V. Taravella International Airport (SACO) |
| Time | Latitude | Longitude | Altitude | Speed | Heading |
|---|---|---|---|---|---|
| 2026-05-03 20:15 | -34.12273 | -58.78782 | 22827 ft | 361 kts | 278° |
| 2026-05-03 20:15 | -34.11768 | -58.81764 | 23364 ft | 364 kts | 278° |
| 2026-05-03 20:15 | -34.11261 | -58.84767 | 23866 ft | 367 kts | 278° |
| 2026-05-03 20:15 | -34.10750 | -58.87795 | 24312 ft | 369 kts | 278° |
| 2026-05-03 20:16 | -34.10236 | -58.90839 | 24769 ft | 371 kts | 278° |
| 2026-05-03 20:16 | -34.09718 | -58.93899 | 25220 ft | 373 kts | 278° |
| 2026-05-03 20:16 | -34.09202 | -58.96939 | 25663 ft | 375 kts | 278° |
| 2026-05-03 20:16 | -34.08677 | -59.00031 | 26099 ft | 378 kts | 278° |
| 2026-05-03 20:17 | -34.08147 | -59.03143 | 26530 ft | 380 kts | 278° |
| 2026-05-03 20:17 | -34.07614 | -59.06269 | 26964 ft | 382 kts | 277° |
| 2026-05-03 20:17 | -34.07077 | -59.09413 | 27376 ft | 384 kts | 277° |
| 2026-05-03 20:17 | -34.06526 | -59.12574 | 27780 ft | 387 kts | 280° |
| 2026-05-03 20:18 | -34.05474 | -59.15598 | 28206 ft | 399 kts | 297° |
| 2026-05-03 20:18 | -34.03771 | -59.18276 | 28646 ft | 405 kts | 302° |
| 2026-05-03 20:18 | -34.01990 | -59.20927 | 28975 ft | 409 kts | 303° |
| 2026-05-03 20:18 | -34.00206 | -59.23547 | 29348 ft | 411 kts | 303° |
| 2026-05-03 20:19 | -33.98375 | -59.26206 | 29722 ft | 413 kts | 303° |
| 2026-05-03 20:19 | -33.96528 | -59.28872 | 30081 ft | 416 kts | 303° |
| 2026-05-03 20:19 | -33.94673 | -59.31543 | 30493 ft | 415 kts | 303° |
| 2026-05-03 20:19 | -33.92821 | -59.34206 | 30914 ft | 414 kts | 303° |
| 2026-05-03 20:20 | -33.90971 | -59.36864 | 31320 ft | 413 kts | 303° |
| 2026-05-03 20:20 | -33.89128 | -59.39511 | 31728 ft | 412 kts | 303° |
| 2026-05-03 20:20 | -33.87283 | -59.42157 | 32044 ft | 413 kts | 303° |
| 2026-05-03 20:21 | -33.83600 | -59.47432 | 32104 ft | 410 kts | 303° |
| 2026-05-03 20:21 | -33.79934 | -59.52678 | 32097 ft | 409 kts | 303° |
| 2026-05-03 20:22 | -33.76293 | -59.57880 | 32089 ft | 409 kts | 303° |
| 2026-05-03 20:22 | -33.72623 | -59.63115 | 32093 ft | 409 kts | 303° |
| 2026-05-03 20:23 | -33.68949 | -59.68345 | 32089 ft | 410 kts | 303° |
| 2026-05-03 20:23 | -33.65269 | -59.73569 | 32089 ft | 410 kts | 303° |
| 2026-05-03 20:24 | -33.61614 | -59.78753 | 32089 ft | 409 kts | 303° |
| 2026-05-03 20:24 | -33.57935 | -59.83963 | 32085 ft | 410 kts | 303° |
| 2026-05-03 20:25 | -33.54251 | -59.89172 | 32083 ft | 409 kts | 303° |
| 2026-05-03 20:25 | -33.50565 | -59.94376 | 32080 ft | 409 kts | 303° |
| 2026-05-03 20:26 | -33.46877 | -59.99575 | 32078 ft | 410 kts | 303° |
| 2026-05-03 20:26 | -33.43210 | -60.04738 | 32077 ft | 410 kts | 303° |
| 2026-05-03 20:27 | -33.39517 | -60.09930 | 32079 ft | 410 kts | 303° |
| 2026-05-03 20:27 | -33.35822 | -60.15117 | 32077 ft | 410 kts | 303° |
| 2026-05-03 20:28 | -33.32126 | -60.20297 | 32072 ft | 409 kts | 303° |
| 2026-05-03 20:28 | -33.28428 | -60.25475 | 32074 ft | 409 kts | 303° |
| 2026-05-03 20:29 | -33.24754 | -60.30610 | 32073 ft | 409 kts | 303° |
| 2026-05-03 20:29 | -33.21053 | -60.35776 | 32069 ft | 409 kts | 303° |
| 2026-05-03 20:30 | -33.17348 | -60.40940 | 32069 ft | 409 kts | 303° |
| 2026-05-03 20:30 | -33.13645 | -60.46094 | 32065 ft | 409 kts | 303° |
| 2026-05-03 20:31 | -33.09936 | -60.51249 | 32064 ft | 409 kts | 303° |
| 2026-05-03 20:31 | -33.06251 | -60.56363 | 32053 ft | 409 kts | 303° |
| 2026-05-03 20:32 | -33.02540 | -60.61508 | 32046 ft | 409 kts | 303° |
| 2026-05-03 20:32 | -32.98828 | -60.66645 | 32041 ft | 409 kts | 303° |
| 2026-05-03 20:33 | -32.95114 | -60.71779 | 32043 ft | 409 kts | 303° |
| 2026-05-03 20:33 | -32.93883 | -60.73480 | 32044 ft | 409 kts | 303° |
| 2026-05-03 20:34 | -32.89323 | -60.80552 | 32053 ft | 398 kts | 292° |
| 2026-05-03 20:34 | -32.85571 | -60.88143 | 32041 ft | 400 kts | 293° |
| 2026-05-03 20:35 | -32.82754 | -60.93841 | 32046 ft | 400 kts | 293° |
| 2026-05-03 20:35 | -32.79933 | -60.99536 | 32050 ft | 399 kts | 293° |
| 2026-05-03 20:36 | -32.77132 | -61.05187 | 32048 ft | 399 kts | 293° |
| 2026-05-03 20:36 | -32.74311 | -61.10868 | 32052 ft | 399 kts | 293° |
| 2026-05-03 20:37 | -32.71487 | -61.16548 | 32054 ft | 399 kts | 294° |
| 2026-05-03 20:37 | -32.68660 | -61.22222 | 32050 ft | 399 kts | 294° |
| 2026-05-03 20:38 | -32.65832 | -61.27892 | 32050 ft | 399 kts | 294° |
| 2026-05-03 20:38 | -32.63000 | -61.33559 | 32045 ft | 399 kts | 294° |
| 2026-05-03 20:39 | -32.60187 | -61.39182 | 32044 ft | 399 kts | 294° |
| 2026-05-03 20:39 | -32.57353 | -61.44836 | 32045 ft | 399 kts | 294° |
| 2026-05-03 20:40 | -32.54516 | -61.50488 | 32041 ft | 399 kts | 294° |
| 2026-05-03 20:40 | -32.51680 | -61.56130 | 32042 ft | 399 kts | 294° |
| 2026-05-03 20:41 | -32.48841 | -61.61769 | 32042 ft | 399 kts | 294° |
| 2026-05-03 20:41 | -32.45998 | -61.67407 | 32039 ft | 398 kts | 294° |
| 2026-05-03 20:42 | -32.43175 | -61.72998 | 32035 ft | 398 kts | 294° |
| 2026-05-03 20:42 | -32.40329 | -61.78625 | 32037 ft | 398 kts | 294° |
| 2026-05-03 20:43 | -32.37483 | -61.84246 | 32036 ft | 398 kts | 294° |
| 2026-05-03 20:43 | -32.34637 | -61.89859 | 32034 ft | 398 kts | 294° |
| 2026-05-03 20:44 | -32.31784 | -61.95477 | 32032 ft | 398 kts | 294° |
| 2026-05-03 20:44 | -32.28954 | -62.01044 | 32032 ft | 398 kts | 294° |
| 2026-05-03 20:45 | -32.26134 | -62.06582 | 31853 ft | 384 kts | 294° |
| 2026-05-03 20:45 | -32.25229 | -62.08358 | 31698 ft | 378 kts | 294° |
| 2026-05-03 20:45 | -32.23444 | -62.11859 | 31385 ft | 367 kts | 294° |
| 2026-05-03 20:45 | -32.22129 | -62.14438 | 31168 ft | 366 kts | 294° |
| 2026-05-03 20:46 | -32.20816 | -62.17009 | 30941 ft | 365 kts | 294° |
| 2026-05-03 20:46 | -32.19506 | -62.19573 | 30714 ft | 364 kts | 294° |
| 2026-05-03 20:46 | -32.18200 | -62.22127 | 30487 ft | 363 kts | 294° |
| 2026-05-03 20:46 | -32.16898 | -62.24671 | 30270 ft | 362 kts | 294° |
| 2026-05-03 20:47 | -32.15619 | -62.27168 | 29991 ft | 357 kts | 294° |
| 2026-05-03 20:47 | -32.14356 | -62.29632 | 29881 ft | 345 kts | 294° |
| 2026-05-03 20:47 | -32.13133 | -62.32018 | 29755 ft | 338 kts | 294° |
| 2026-05-03 20:47 | -32.11897 | -62.34431 | 29372 ft | 348 kts | 294° |
| 2026-05-03 20:48 | -32.10636 | -62.36885 | 28861 ft | 351 kts | 294° |
| 2026-05-03 20:48 | -32.09372 | -62.39345 | 28397 ft | 350 kts | 294° |
| 2026-05-03 20:48 | -32.08113 | -62.41793 | 27941 ft | 349 kts | 295° |
| 2026-05-03 20:48 | -32.06858 | -62.44234 | 27482 ft | 347 kts | 295° |
| 2026-05-03 20:49 | -32.05607 | -62.46663 | 27047 ft | 346 kts | 295° |
| 2026-05-03 20:49 | -32.04359 | -62.49087 | 26609 ft | 345 kts | 295° |
| 2026-05-03 20:49 | -32.03132 | -62.51467 | 26188 ft | 344 kts | 295° |
| 2026-05-03 20:49 | -32.01889 | -62.53877 | 25759 ft | 344 kts | 295° |
| 2026-05-03 20:50 | -32.00649 | -62.56281 | 25340 ft | 343 kts | 295° |
| 2026-05-03 20:50 | -31.99412 | -62.58676 | 24929 ft | 342 kts | 295° |
| 2026-05-03 20:50 | -31.98175 | -62.61069 | 24522 ft | 342 kts | 295° |
| 2026-05-03 20:50 | -31.96941 | -62.63457 | 24115 ft | 341 kts | 295° |
| 2026-05-03 20:51 | -31.95707 | -62.65842 | 23725 ft | 341 kts | 295° |
| 2026-05-03 20:51 | -31.94477 | -62.68220 | 23285 ft | 340 kts | 296° |
| 2026-05-03 20:51 | -31.93244 | -62.70599 | 22816 ft | 340 kts | 296° |
| 2026-05-03 20:51 | -31.92015 | -62.72970 | 22354 ft | 340 kts | 296° |
| 2026-05-03 20:52 | -31.90801 | -62.75311 | 21911 ft | 339 kts | 296° |
| 2026-05-03 20:52 | -31.89572 | -62.77679 | 21462 ft | 339 kts | 296° |
| 2026-05-03 20:52 | -31.88345 | -62.80042 | 21023 ft | 338 kts | 296° |
| 2026-05-03 20:52 | -31.87118 | -62.82403 | 20591 ft | 338 kts | 297° |
| 2026-05-03 20:53 | -31.85891 | -62.84763 | 20165 ft | 338 kts | 297° |
| 2026-05-03 20:53 | -31.84657 | -62.87113 | 19740 ft | 338 kts | 300° |
| 2026-05-03 20:53 | -31.83005 | -62.89114 | 19343 ft | 347 kts | 321° |
| 2026-05-03 20:53 | -31.80791 | -62.90298 | 19002 ft | 356 kts | 342° |
| 2026-05-03 20:54 | -31.78306 | -62.90486 | 18646 ft | 364 kts | 2° |
| 2026-05-03 20:54 | -31.73807 | -62.87855 | 17886 ft | 376 kts | 45° |
| 2026-05-03 20:54 | -31.72116 | -62.85523 | 17474 ft | 374 kts | 43° |
| 2026-05-03 20:55 | -31.70043 | -62.83758 | 17068 ft | 365 kts | 21° |
| 2026-05-03 20:55 | -31.67645 | -62.82966 | 16679 ft | 355 kts | 0° |
| 2026-05-03 20:55 | -31.65239 | -62.83216 | 16305 ft | 343 kts | 339° |
| 2026-05-03 20:55 | -31.63039 | -62.84219 | 15951 ft | 337 kts | 332° |
| 2026-05-03 20:56 | -31.60909 | -62.85344 | 15596 ft | 335 kts | 332° |
| 2026-05-03 20:56 | -31.58793 | -62.86479 | 15233 ft | 333 kts | 332° |
| 2026-05-03 20:56 | -31.56691 | -62.87614 | 14892 ft | 331 kts | 332° |
| 2026-05-03 20:56 | -31.54633 | -62.88731 | 14552 ft | 330 kts | 332° |
| 2026-05-03 20:57 | -31.52559 | -62.89860 | 14210 ft | 328 kts | 332° |
| 2026-05-03 20:57 | -31.50495 | -62.90988 | 13878 ft | 326 kts | 332° |
| 2026-05-03 20:57 | -31.48495 | -62.92213 | 13489 ft | 322 kts | 321° |
| 2026-05-03 20:57 | -31.46968 | -62.94069 | 13177 ft | 313 kts | 303° |
| 2026-05-03 20:58 | -31.45745 | -62.96149 | 12942 ft | 307 kts | 302° |
| 2026-05-03 20:58 | -31.44561 | -62.98206 | 12700 ft | 302 kts | 302° |
| 2026-05-03 20:58 | -31.43398 | -63.00227 | 12458 ft | 296 kts | 302° |
| 2026-05-03 20:58 | -31.42271 | -63.02185 | 12234 ft | 291 kts | 302° |
| 2026-05-03 20:59 | -31.41147 | -63.04138 | 12000 ft | 288 kts | 302° |
| 2026-05-03 20:59 | -31.40037 | -63.06071 | 11761 ft | 285 kts | 302° |
| 2026-05-03 20:59 | -31.38939 | -63.07983 | 11531 ft | 282 kts | 302° |
| 2026-05-03 20:59 | -31.37851 | -63.09885 | 11313 ft | 280 kts | 300° |
| 2026-05-03 21:00 | -31.36977 | -63.11899 | 11079 ft | 277 kts | 293° |
| 2026-05-03 21:00 | -31.36726 | -63.12568 | 11007 ft | 276 kts | 292° |
| 2026-05-03 21:00 | -31.35461 | -63.16014 | 10639 ft | 274 kts | 292° |
| 2026-05-03 21:00 | -31.34724 | -63.18035 | 10420 ft | 273 kts | 292° |
| 2026-05-03 21:01 | -31.34227 | -63.20192 | 10187 ft | 271 kts | 276° |
| 2026-05-03 21:01 | -31.34121 | -63.22362 | 10068 ft | 271 kts | 272° |
| 2026-05-03 21:01 | -31.34061 | -63.24567 | 10036 ft | 272 kts | 272° |
| 2026-05-03 21:01 | -31.34001 | -63.26787 | 9755 ft | 274 kts | 272° |
| 2026-05-03 21:02 | -31.33958 | -63.29019 | 9409 ft | 275 kts | 272° |
| 2026-05-03 21:02 | -31.33935 | -63.31270 | 9064 ft | 279 kts | 272° |
| 2026-05-03 21:02 | -31.33929 | -63.33545 | 8735 ft | 280 kts | 272° |
| 2026-05-03 21:02 | -31.33936 | -63.35828 | 8403 ft | 281 kts | 273° |
| 2026-05-03 21:03 | -31.33955 | -63.38110 | 8074 ft | 281 kts | 272° |
| 2026-05-03 21:03 | -31.33989 | -63.40393 | 7741 ft | 280 kts | 272° |
| 2026-05-03 21:03 | -31.34032 | -63.42639 | 7414 ft | 280 kts | 272° |
| 2026-05-03 21:03 | -31.34084 | -63.44905 | 7120 ft | 278 kts | 272° |
| 2026-05-03 21:04 | -31.34145 | -63.47128 | 7046 ft | 267 kts | 272° |
| 2026-05-03 21:04 | -31.34211 | -63.49279 | 7040 ft | 263 kts | 272° |
| 2026-05-03 21:04 | -31.34274 | -63.51418 | 7022 ft | 263 kts | 272° |
| 2026-05-03 21:04 | -31.34341 | -63.53557 | 7020 ft | 264 kts | 272° |
| 2026-05-03 21:05 | -31.34411 | -63.55701 | 7014 ft | 263 kts | 272° |
| 2026-05-03 21:05 | -31.34478 | -63.57840 | 7011 ft | 263 kts | 272° |
| 2026-05-03 21:05 | -31.34542 | -63.59972 | 7004 ft | 262 kts | 272° |
| 2026-05-03 21:05 | -31.34604 | -63.62105 | 7007 ft | 262 kts | 272° |
| 2026-05-03 21:06 | -31.34670 | -63.64210 | 7010 ft | 262 kts | 272° |
| 2026-05-03 21:06 | -31.34736 | -63.66334 | 7001 ft | 257 kts | 272° |
| 2026-05-03 21:06 | -31.34800 | -63.68371 | 7005 ft | 244 kts | 272° |
| 2026-05-03 21:06 | -31.34867 | -63.70301 | 6995 ft | 231 kts | 272° |
| 2026-05-03 21:07 | -31.34938 | -63.72122 | 6992 ft | 220 kts | 272° |
| 2026-05-03 21:07 | -31.35052 | -63.73908 | 6801 ft | 223 kts | 262° |
| 2026-05-03 21:07 | -31.35446 | -63.75034 | 6627 ft | 230 kts | 241° |
| 2026-05-03 21:08 | -31.36659 | -63.76279 | 6374 ft | 239 kts | 208° |
| 2026-05-03 21:08 | -31.38302 | -63.76640 | 6100 ft | 246 kts | 175° |
| 2026-05-03 21:08 | -31.42130 | -63.75413 | 6055 ft | 238 kts | 162° |
| 2026-05-03 21:08 | -31.43679 | -63.74845 | 6026 ft | 230 kts | 162° |
| 2026-05-03 21:09 | -31.45218 | -63.74449 | 5943 ft | 224 kts | 187° |
| 2026-05-03 21:09 | -31.46568 | -63.75098 | 5863 ft | 205 kts | 234° |
| 2026-05-03 21:09 | -31.47140 | -63.76503 | 5945 ft | 188 kts | 269° |
| 2026-05-03 21:09 | -31.47099 | -63.78011 | 5925 ft | 185 kts | 289° |
| 2026-05-03 21:10 | -31.46845 | -63.79491 | 5739 ft | 186 kts | 286° |
| 2026-05-03 21:10 | -31.46627 | -63.80984 | 5519 ft | 186 kts | 286° |
| 2026-05-03 21:10 | -31.46488 | -63.81972 | 5369 ft | 186 kts | 286° |
| 2026-05-03 21:10 | -31.46219 | -63.83942 | 5083 ft | 183 kts | 286° |
| 2026-05-03 21:11 | -31.46022 | -63.85405 | 4988 ft | 181 kts | 286° |
| 2026-05-03 21:11 | -31.45829 | -63.86862 | 4963 ft | 181 kts | 286° |
| 2026-05-03 21:11 | -31.45638 | -63.88323 | 4975 ft | 182 kts | 286° |
| 2026-05-03 21:11 | -31.45447 | -63.89789 | 4985 ft | 182 kts | 286° |
| 2026-05-03 21:12 | -31.45257 | -63.91255 | 4985 ft | 182 kts | 285° |
| 2026-05-03 21:12 | -31.45133 | -63.92223 | 4996 ft | 181 kts | 285° |
| 2026-05-03 21:12 | -31.44945 | -63.93679 | 5000 ft | 181 kts | 285° |
| 2026-05-03 21:12 | -31.44756 | -63.95137 | 4910 ft | 181 kts | 285° |
| 2026-05-03 21:13 | -31.44568 | -63.96597 | 4674 ft | 181 kts | 285° |
| 2026-05-03 21:13 | -31.44380 | -63.98050 | 4500 ft | 180 kts | 286° |
| 2026-05-03 21:13 | -31.44192 | -63.99498 | 4429 ft | 178 kts | 286° |
| 2026-05-03 21:13 | -31.43957 | -64.01317 | 4504 ft | 160 kts | 286° |
| 2026-05-03 21:14 | -31.43849 | -64.02169 | 4482 ft | 154 kts | 287° |
| 2026-05-03 21:14 | -31.43690 | -64.03387 | 4539 ft | 150 kts | 287° |
| 2026-05-03 21:14 | -31.43537 | -64.04575 | 4512 ft | 149 kts | 286° |
| 2026-05-03 21:14 | -31.43521 | -64.05801 | 4480 ft | 152 kts | 276° |
| 2026-05-03 21:15 | -31.43542 | -64.07030 | 4491 ft | 150 kts | 278° |
| 2026-05-03 21:15 | -31.43537 | -64.08246 | 4479 ft | 149 kts | 279° |
| 2026-05-03 21:15 | -31.43529 | -64.09464 | 4487 ft | 150 kts | 279° |
| 2026-05-03 21:15 | -31.43520 | -64.10682 | 4496 ft | 149 kts | 279° |
| 2026-05-03 21:16 | -31.43512 | -64.11900 | 4469 ft | 150 kts | 279° |
| 2026-05-03 21:16 | -31.43503 | -64.13123 | 4480 ft | 150 kts | 278° |
| 2026-05-03 21:16 | -31.43495 | -64.14339 | 4489 ft | 149 kts | 278° |
| 2026-05-03 21:16 | -31.43425 | -64.15542 | 4466 ft | 145 kts | 294° |
| 2026-05-03 21:17 | -31.42878 | -64.16429 | 4505 ft | 135 kts | 323° |
| 2026-05-03 21:17 | -31.42117 | -64.17080 | 4553 ft | 135 kts | 328° |
| 2026-05-03 21:17 | -31.41329 | -64.17676 | 4529 ft | 135 kts | 328° |
| 2026-05-03 21:17 | -31.40556 | -64.18299 | 4454 ft | 135 kts | 326° |
| 2026-05-03 21:18 | -31.39801 | -64.18946 | 4410 ft | 135 kts | 325° |
| 2026-05-03 21:18 | -31.39043 | -64.19598 | 4220 ft | 135 kts | 325° |
| 2026-05-03 21:18 | -31.38281 | -64.20242 | 3965 ft | 136 kts | 328° |
| 2026-05-03 21:18 | -31.37424 | -64.20760 | 3606 ft | 140 kts | 343° |
| 2026-05-03 21:19 | -31.36439 | -64.20872 | 3154 ft | 147 kts | 6° |
| 2026-05-03 21:19 | -31.33185 | -64.20804 | 1864 ft | 160 kts | 2° |
| 2026-05-03 21:20 | -31.32098 | -64.20823 | 1621 ft | 148 kts | 1° |
| 2026-05-03 21:20 | -31.31334 | -64.20830 | 1620 ft | 72 kts | 358° |
| 2026-05-03 21:20 | -31.31049 | -64.20813 | 1614 ft | 20 kts | 6° |
| 2026-05-03 21:20 | -31.31041 | -64.20855 | 1619 ft | 7 kts | 203° |
| 2026-05-03 21:21 | -31.31122 | -64.20841 | 1622 ft | 22 kts | 174° |
| 2026-05-03 21:21 | -31.31319 | -64.20831 | 1619 ft | 31 kts | 179° |
| 2026-05-03 21:21 | -31.31464 | -64.20873 | 1623 ft | 14 kts | 244° |
| 2026-05-03 21:21 | -31.31466 | -64.20963 | 1616 ft | 0 kts | 270° |
| 2026-05-03 21:22 | -31.31466 | -64.20966 | 1616 ft | 0 kts | 270° |
| 2026-05-03 21:22 | -31.31466 | -64.20970 | 1621 ft | 3 kts | 271° |
| 2026-05-03 21:23 | -31.31482 | -64.21034 | 1618 ft | 14 kts | 238° |
| 2026-05-03 21:23 | -31.31536 | -64.21081 | 1616 ft | 8 kts | 189° |
| 2026-05-03 21:23 | -31.31550 | -64.21091 | 1615 ft | 0 kts | 234° |
| 2026-05-03 21:23 | -31.31549 | -64.21109 | 1619 ft | 7 kts | 278° |
| 2026-05-03 21:24 | -31.31550 | -64.21164 | 1615 ft | 5 kts | 254° |
| 2026-05-03 21:24 | -31.31551 | -64.21169 | 1615 ft | 0 kts | 256° |